createdAt,value
2023-05-18T00:02:18.886Z,28.05
2023-05-18T00:04:45.829Z,29.27
2023-05-18T00:07:13.044Z,28.58
2023-05-18T00:09:40.897Z,33.67
2023-05-18T00:12:09.148Z,29.75
2023-05-18T00:14:36.466Z,27.88
2023-05-18T00:17:03.372Z,30.13
2023-05-18T00:19:30.320Z,27.92
2023-05-18T00:21:57.495Z,27.17
2023-05-18T00:24:24.327Z,27.50
2023-05-18T00:26:51.444Z,32.60
2023-05-18T00:29:18.112Z,34.17
2023-05-18T00:31:46.738Z,28.08
2023-05-18T00:34:16.741Z,28.20
2023-05-18T00:36:43.508Z,31.73
2023-05-18T00:39:10.430Z,31.80
2023-05-18T00:41:37.420Z,27.42
2023-05-18T00:44:04.829Z,25.75
2023-05-18T00:46:32.299Z,30.73
2023-05-18T00:49:01.484Z,27.27
2023-05-18T00:51:29.445Z,29.80
2023-05-18T00:53:57.449Z,29.15
2023-05-18T00:56:24.925Z,31.10
2023-05-18T00:58:55.678Z,25.67
2023-05-18T01:01:28.710Z,29.70
2023-05-18T01:03:57.212Z,26.05
2023-05-18T01:06:25.409Z,25.92
2023-05-18T01:08:55.698Z,26.02
2023-05-18T01:11:35.159Z,37.25
2023-05-18T01:14:05.485Z,25.13
2023-05-18T01:16:43.513Z,27.35
2023-05-18T01:19:19.329Z,38.28
2023-05-18T01:22:26.316Z,30.30
2023-05-18T01:25:03.503Z,25.52
2023-05-18T01:27:37.410Z,27.20
2023-05-18T01:30:05.509Z,26.35
2023-05-18T01:32:40.657Z,28.05
2023-05-18T01:35:07.700Z,29.85
2023-05-18T01:37:34.401Z,29.70
2023-05-18T01:40:01.274Z,28.70
2023-05-18T01:42:30.908Z,28.33
2023-05-18T01:45:02.856Z,34.25
2023-05-18T01:47:31.560Z,25.85
2023-05-18T01:50:01.325Z,24.17
2023-05-18T01:52:37.890Z,25.42
2023-05-18T01:55:09.715Z,27.17
2023-05-18T01:57:39.196Z,25.85
2023-05-18T02:00:10.020Z,26.25
2023-05-18T02:02:43.050Z,26.00
2023-05-18T02:05:12.390Z,26.70
2023-05-18T02:07:39.991Z,27.27
2023-05-18T02:10:08.862Z,32.25
2023-05-18T02:12:35.791Z,30.27
2023-05-18T02:15:05.504Z,33.10
2023-05-18T02:17:33.860Z,29.92
2023-05-18T02:20:00.671Z,27.33
2023-05-18T02:22:27.460Z,27.67
2023-05-18T02:24:54.554Z,36.90
2023-05-18T02:27:21.269Z,28.40
2023-05-18T02:29:48.740Z,28.60
2023-05-18T02:32:15.513Z,29.23
2023-05-18T02:34:42.366Z,28.33
2023-05-18T02:37:10.448Z,28.55
2023-05-18T02:39:37.150Z,31.77
2023-05-18T02:42:04.358Z,29.38
2023-05-18T02:44:31.415Z,29.42
2023-05-18T02:46:58.182Z,28.55
2023-05-18T02:49:24.820Z,29.73
2023-05-18T02:51:51.810Z,34.17
2023-05-18T02:54:18.575Z,29.63
2023-05-18T02:56:46.189Z,29.30
2023-05-18T03:01:57.991Z,30.35
2023-05-18T03:04:25.726Z,29.08
2023-05-18T03:06:57.216Z,28.35
2023-05-18T03:09:24.436Z,30.73
2023-05-18T03:11:53.846Z,31.02
2023-05-18T03:14:20.608Z,28.30
2023-05-18T03:16:47.976Z,28.85
2023-05-18T03:19:16.549Z,29.05
2023-05-18T03:21:43.793Z,29.83
2023-05-18T03:24:14.462Z,28.30
2023-05-18T03:26:44.166Z,36.67
2023-05-18T03:29:13.296Z,29.60
2023-05-18T03:31:40.874Z,30.85
2023-05-18T03:34:08.268Z,35.45
2023-05-18T03:36:35.570Z,29.25
2023-05-18T03:39:02.432Z,32.53
2023-05-18T03:41:29.974Z,29.67
2023-05-18T03:43:56.816Z,27.60
2023-05-18T03:46:23.786Z,30.92
2023-05-18T03:48:54.176Z,32.65
2023-05-18T03:51:29.078Z,31.02
2023-05-18T03:53:55.895Z,30.92
2023-05-18T03:56:23.087Z,31.73
2023-05-18T03:58:51.315Z,36.47
2023-05-18T04:01:18.821Z,29.90
2023-05-18T04:03:45.652Z,34.72
2023-05-18T04:06:12.419Z,30.70
2023-05-18T04:08:40.366Z,29.42
2023-05-18T04:11:07.055Z,31.85
2023-05-18T04:13:33.730Z,28.52
2023-05-18T04:16:00.754Z,35.33
2023-05-18T04:18:30.039Z,28.95
2023-05-18T04:20:56.945Z,29.00
2023-05-18T04:23:24.168Z,28.98
2023-05-18T04:25:51.424Z,28.20
2023-05-18T04:28:19.082Z,28.77
2023-05-18T04:30:46.029Z,29.23
2023-05-18T04:33:13.315Z,26.77
2023-05-18T04:35:39.991Z,29.60
2023-05-18T04:38:06.945Z,27.98
2023-05-18T04:40:34.508Z,28.13
2023-05-18T04:43:01.944Z,27.58
2023-05-18T04:45:31.890Z,28.65
2023-05-18T04:48:01.891Z,43.67
2023-05-18T04:50:28.795Z,27.60
2023-05-18T04:52:57.644Z,27.27
2023-05-18T04:55:27.238Z,25.85
2023-05-18T04:58:06.128Z,27.08
2023-05-18T05:00:33.010Z,27.67
2023-05-18T05:02:59.867Z,22.13
2023-05-18T05:05:27.233Z,20.83
2023-05-18T05:07:54.600Z,25.17
2023-05-18T05:10:21.831Z,23.88
2023-05-18T05:12:50.365Z,21.17
2023-05-18T05:15:18.079Z,22.83
2023-05-18T05:17:47.120Z,25.30
2023-05-18T05:20:13.958Z,29.27
2023-05-18T05:22:40.723Z,28.85
2023-05-18T05:25:10.470Z,29.67
2023-05-18T05:27:38.163Z,29.40
2023-05-18T05:30:05.949Z,28.98
2023-05-18T05:32:36.507Z,27.75
2023-05-18T05:35:04.176Z,27.67
2023-05-18T05:37:31.642Z,28.10
2023-05-18T05:39:59.272Z,27.52
2023-05-18T05:42:26.668Z,27.00
2023-05-18T05:44:56.522Z,27.00
2023-05-18T05:47:24.360Z,29.23
2023-05-18T05:49:51.495Z,28.42
2023-05-18T05:52:18.477Z,27.75
2023-05-18T05:54:45.180Z,27.75
2023-05-18T05:57:11.865Z,28.25
2023-05-18T05:59:38.578Z,28.45
2023-05-18T06:02:05.497Z,28.05
2023-05-18T06:04:32.648Z,28.08
2023-05-18T06:06:59.473Z,29.17
2023-05-18T06:09:26.282Z,29.17
2023-05-18T06:11:54.867Z,29.38
2023-05-18T06:14:21.941Z,27.10
2023-05-18T06:16:48.749Z,27.58
2023-05-18T06:19:15.607Z,30.45
2023-05-18T06:21:42.316Z,28.38
2023-05-18T06:24:09.617Z,29.95
2023-05-18T06:26:43.527Z,31.77
2023-05-18T06:29:21.356Z,31.52
2023-05-18T06:32:20.429Z,31.23
2023-05-18T06:34:53.302Z,31.83
2023-05-18T06:37:21.341Z,31.55
2023-05-18T06:39:49.317Z,31.90
2023-05-18T06:42:16.082Z,32.22
2023-05-18T06:45:00.660Z,32.40
2023-05-18T06:47:48.425Z,30.88
2023-05-18T06:50:15.635Z,31.52
2023-05-18T06:52:42.499Z,30.13
2023-05-18T06:55:09.582Z,31.20
2023-05-18T06:57:36.370Z,30.83
2023-05-18T07:00:07.071Z,31.02
2023-05-18T07:02:34.095Z,30.92
2023-05-18T07:05:01.486Z,32.38
2023-05-18T07:07:28.277Z,31.90
2023-05-18T07:09:54.912Z,30.73
2023-05-18T07:12:22.468Z,30.27
2023-05-18T07:14:49.203Z,28.33
2023-05-18T07:17:15.886Z,30.27
2023-05-18T07:19:42.542Z,30.85
2023-05-18T07:22:09.822Z,30.85
2023-05-18T07:24:36.504Z,29.98
2023-05-18T07:27:03.310Z,29.13
2023-05-18T07:29:30.547Z,32.78
2023-05-18T07:31:57.298Z,31.38
2023-05-18T07:34:26.644Z,32.47
2023-05-18T07:36:53.925Z,32.30
2023-05-18T07:39:21.737Z,33.60
2023-05-18T07:41:49.531Z,34.42
2023-05-18T07:44:16.203Z,34.83
2023-05-18T07:46:43.475Z,34.00
2023-05-18T07:49:10.218Z,31.77
2023-05-18T07:51:36.912Z,32.20
2023-05-18T07:54:05.040Z,34.10
2023-05-18T07:56:31.675Z,35.20
2023-05-18T07:58:58.332Z,34.28
2023-05-18T08:01:27.550Z,36.05
2023-05-18T08:03:54.646Z,32.90
2023-05-18T08:06:21.449Z,34.10
2023-05-18T08:08:48.255Z,33.20
2023-05-18T08:11:15.036Z,36.67
2023-05-18T08:13:41.914Z,32.90
2023-05-18T08:16:12.261Z,31.63
2023-05-18T08:18:39.897Z,35.00
2023-05-18T08:21:10.201Z,34.15
2023-05-18T08:23:37.305Z,33.47
2023-05-18T08:26:04.105Z,36.05
2023-05-18T08:28:31.325Z,34.75
2023-05-18T08:30:58.231Z,34.33
2023-05-18T08:33:25.664Z,33.00
2023-05-18T08:35:52.598Z,35.25
2023-05-18T08:38:19.390Z,38.80
2023-05-18T08:41:25.904Z,37.65
2023-05-18T08:44:22.860Z,36.28
2023-05-18T08:46:51.272Z,35.70
2023-05-18T08:49:20.300Z,37.22
2023-05-18T08:51:49.090Z,35.05
2023-05-18T08:54:22.762Z,34.25
2023-05-18T08:56:50.679Z,35.35
2023-05-18T08:59:23.603Z,36.78
2023-05-18T09:01:51.857Z,37.70
2023-05-18T09:04:19.985Z,38.20
2023-05-18T09:06:48.377Z,37.05
2023-05-18T09:09:16.107Z,38.47
2023-05-18T09:11:43.087Z,39.95
2023-05-18T09:14:10.407Z,39.63
2023-05-18T09:16:37.389Z,39.13
2023-05-18T09:19:04.806Z,35.25
2023-05-18T09:21:32.742Z,37.50
2023-05-18T09:24:01.031Z,39.17
2023-05-18T09:26:27.773Z,38.08
2023-05-18T09:28:54.839Z,36.40
2023-05-18T09:31:24.620Z,36.78
2023-05-18T09:33:52.271Z,45.40
2023-05-18T09:36:25.588Z,45.10
2023-05-18T09:38:53.208Z,41.63
2023-05-18T09:41:20.018Z,43.08
2023-05-18T09:43:51.232Z,41.63
2023-05-18T09:46:18.837Z,34.03
2023-05-18T09:48:55.392Z,36.58
2023-05-18T09:51:25.019Z,36.00
2023-05-18T09:53:56.386Z,36.40
2023-05-18T09:56:27.249Z,35.67
2023-05-18T09:58:54.172Z,35.33
2023-05-18T10:01:21.077Z,43.50
2023-05-18T10:03:49.575Z,47.08
2023-05-18T10:06:20.951Z,42.67
2023-05-18T10:08:47.797Z,44.83
2023-05-18T10:11:19.500Z,38.38
2023-05-18T10:13:46.842Z,41.95
2023-05-18T10:16:15.654Z,48.97
2023-05-18T10:18:42.948Z,48.00
2023-05-18T10:21:12.418Z,46.10
2023-05-18T10:23:41.573Z,34.35
2023-05-18T10:26:09.711Z,37.20
2023-05-18T10:28:42.181Z,44.45
2023-05-18T10:31:09.719Z,46.53
2023-05-18T10:33:38.002Z,48.60
2023-05-18T10:36:06.199Z,48.38
2023-05-18T10:38:36.222Z,48.92
2023-05-18T10:41:05.456Z,46.65
2023-05-18T10:43:35.068Z,49.47
2023-05-18T10:46:02.146Z,47.97
2023-05-18T10:48:30.037Z,49.20
2023-05-18T10:50:57.976Z,46.45
2023-05-18T10:53:29.822Z,40.30
2023-05-18T10:55:56.584Z,48.38
2023-05-18T10:58:26.357Z,49.42
2023-05-18T11:00:57.850Z,47.67
2023-05-18T11:03:27.127Z,48.72
2023-05-18T11:06:11.384Z,49.47
2023-05-18T11:08:48.876Z,59.53
2023-05-18T11:11:18.659Z,56.00
2023-05-18T11:13:49.348Z,49.38
2023-05-18T11:16:17.171Z,49.75
2023-05-18T11:18:52.478Z,48.08
2023-05-18T11:21:19.865Z,57.00
2023-05-18T11:24:14.912Z,48.42
2023-05-18T11:26:42.935Z,47.33
2023-05-18T11:29:23.433Z,36.80
2023-05-18T11:31:55.594Z,40.05
2023-05-18T11:34:44.528Z,44.58
2023-05-18T11:37:12.869Z,49.70
2023-05-18T11:39:48.026Z,50.47
2023-05-18T11:42:19.215Z,36.70
2023-05-18T11:44:57.800Z,44.00
2023-05-18T11:47:31.307Z,35.97
2023-05-18T11:49:58.109Z,51.08
2023-05-18T11:52:25.726Z,51.80
2023-05-18T11:54:57.294Z,45.90
2023-05-18T11:57:40.412Z,34.85
2023-05-18T12:00:10.262Z,36.30
2023-05-18T12:02:44.504Z,35.53
2023-05-18T12:05:11.729Z,40.22
2023-05-18T12:07:39.425Z,51.65
2023-05-18T12:10:17.506Z,48.80
2023-05-18T12:12:49.053Z,34.85
2023-05-18T12:15:17.165Z,53.63
2023-05-18T12:17:46.610Z,38.80
2023-05-18T12:20:18.177Z,39.17
2023-05-18T12:22:55.403Z,37.80
2023-05-18T12:25:23.846Z,39.38
2023-05-18T12:27:52.663Z,44.53
2023-05-18T12:30:21.415Z,47.97
2023-05-18T12:32:50.998Z,48.25
2023-05-18T12:35:21.701Z,49.88
2023-05-18T12:37:48.325Z,46.10
2023-05-18T12:40:16.735Z,39.10
2023-05-18T12:43:00.700Z,38.30
2023-05-18T12:45:32.428Z,43.58
2023-05-18T12:48:06.247Z,38.38
2023-05-18T12:50:33.149Z,37.05
2023-05-18T12:53:01.806Z,43.85
2023-05-18T12:55:30.806Z,41.50
2023-05-18T12:58:12.746Z,46.47
2023-05-18T13:00:39.381Z,45.17
2023-05-18T13:03:16.252Z,43.47
2023-05-18T13:05:47.680Z,43.22
2023-05-18T13:08:17.749Z,45.72
2023-05-18T13:10:45.120Z,48.10
2023-05-18T13:13:15.579Z,39.72
2023-05-18T13:15:43.865Z,36.78
2023-05-18T13:18:11.855Z,37.10
2023-05-18T13:20:51.348Z,42.65
2023-05-18T13:23:21.015Z,46.45
2023-05-18T13:25:48.385Z,43.28
2023-05-18T13:28:16.839Z,41.42
2023-05-18T13:30:45.337Z,35.88
2023-05-18T13:33:12.299Z,39.88
2023-05-18T13:35:44.349Z,45.03
2023-05-18T13:38:13.191Z,38.47
2023-05-18T13:40:41.491Z,37.15
2023-05-18T13:43:10.272Z,41.58
2023-05-18T13:45:39.188Z,43.65
2023-05-18T13:48:09.608Z,45.15
2023-05-18T13:50:37.079Z,35.38
2023-05-18T13:53:04.176Z,39.13
2023-05-18T13:55:31.216Z,35.83
2023-05-18T13:57:58.321Z,35.10
2023-05-18T14:00:25.330Z,38.45
2023-05-18T14:02:53.164Z,38.38
2023-05-18T14:05:20.569Z,40.33
2023-05-18T14:07:47.285Z,40.78
2023-05-18T14:10:14.042Z,41.13
2023-05-18T14:12:42.569Z,43.30
2023-05-18T14:15:10.940Z,39.38
2023-05-18T14:17:37.773Z,39.53
2023-05-18T14:20:05.518Z,35.83
2023-05-18T14:22:32.968Z,40.25
2023-05-18T14:25:00.696Z,40.72
2023-05-18T14:27:28.132Z,39.45
2023-05-18T14:29:54.973Z,38.35
2023-05-18T14:32:21.875Z,37.28
2023-05-18T14:34:51.734Z,39.78
2023-05-18T14:37:19.007Z,42.05
2023-05-18T14:39:46.222Z,38.83
2023-05-18T14:42:13.313Z,40.33
2023-05-18T14:44:43.123Z,40.58
2023-05-18T14:47:10.626Z,40.53
2023-05-18T14:49:37.906Z,37.92
2023-05-18T14:52:05.091Z,36.60
2023-05-18T14:54:31.819Z,38.70
2023-05-18T14:56:59.557Z,41.78
2023-05-18T14:59:26.249Z,37.35
2023-05-18T15:01:52.965Z,41.05
2023-05-18T15:04:21.721Z,38.97
2023-05-18T15:06:49.600Z,37.88
2023-05-18T15:09:16.598Z,37.67
2023-05-18T15:11:43.621Z,37.35
2023-05-18T15:14:10.544Z,40.30
2023-05-18T15:16:37.486Z,40.35
2023-05-18T15:19:05.132Z,40.92
2023-05-18T15:21:31.936Z,41.53
2023-05-18T15:23:59.068Z,40.10
2023-05-18T15:26:26.081Z,40.70
2023-05-18T15:28:52.866Z,38.65
2023-05-18T15:31:19.578Z,36.58
2023-05-18T15:33:46.859Z,40.58
2023-05-18T15:36:13.642Z,37.95
2023-05-18T15:38:41.080Z,34.85
2023-05-18T15:41:07.848Z,39.28
2023-05-18T15:43:36.414Z,41.15
2023-05-18T15:46:03.266Z,40.70
2023-05-18T15:48:30.441Z,39.45
2023-05-18T15:50:57.387Z,39.42
2023-05-18T15:53:24.166Z,37.63
2023-05-18T15:55:55.870Z,37.95
2023-05-18T15:58:25.448Z,36.80
2023-05-18T16:00:52.205Z,39.88
2023-05-18T16:03:19.056Z,37.10
2023-05-18T16:05:45.873Z,38.45
2023-05-18T16:08:12.535Z,39.53
2023-05-18T16:10:39.329Z,37.17
2023-05-18T16:13:06.315Z,39.63
2023-05-18T16:15:34.207Z,37.55
2023-05-18T16:18:01.547Z,35.70
2023-05-18T16:20:28.734Z,35.42
2023-05-18T16:22:55.630Z,37.28
2023-05-18T16:25:23.363Z,36.17
2023-05-18T16:27:50.185Z,37.22
2023-05-18T16:30:16.947Z,36.90
2023-05-18T16:32:44.359Z,36.70
2023-05-18T16:35:11.429Z,37.45
2023-05-18T16:37:38.924Z,37.00
2023-05-18T16:40:06.701Z,36.28
2023-05-18T16:42:33.771Z,36.67
2023-05-18T16:45:00.773Z,37.00
2023-05-18T16:47:27.701Z,36.92
2023-05-18T16:49:54.469Z,37.10
2023-05-18T16:52:21.399Z,35.38
2023-05-18T16:54:48.353Z,37.90
2023-05-18T16:57:15.530Z,37.80
2023-05-18T16:59:42.603Z,37.72
2023-05-18T17:02:18.511Z,38.45
2023-05-18T17:04:45.810Z,38.95
2023-05-18T17:07:12.832Z,38.92
2023-05-18T17:09:41.343Z,38.03
2023-05-18T17:12:09.421Z,36.88
2023-05-18T17:14:36.410Z,37.40
2023-05-18T17:17:04.068Z,36.88
2023-05-18T17:19:31.023Z,36.92
2023-05-18T17:21:57.708Z,37.13
2023-05-18T17:24:24.359Z,38.10
2023-05-18T17:26:51.147Z,36.53
2023-05-18T17:29:19.602Z,36.13
2023-05-18T17:31:47.869Z,35.33
2023-05-18T17:34:14.576Z,36.47
2023-05-18T17:36:42.462Z,36.60
2023-05-18T17:39:09.255Z,35.38
2023-05-18T17:41:36.292Z,35.75
2023-05-18T17:44:03.307Z,37.60
2023-05-18T17:46:30.599Z,38.08
2023-05-18T17:48:57.368Z,38.30
2023-05-18T17:51:24.559Z,38.88
2023-05-18T17:53:51.479Z,38.45
2023-05-18T17:56:18.332Z,36.92
2023-05-18T17:58:45.068Z,36.33
2023-05-18T18:01:12.013Z,37.25
2023-05-18T18:03:39.051Z,43.83
2023-05-18T18:06:06.491Z,45.47
2023-05-18T18:08:33.674Z,44.10
2023-05-18T18:11:00.495Z,43.30
2023-05-18T18:13:27.206Z,44.13
2023-05-18T18:15:53.964Z,44.80
2023-05-18T18:18:21.223Z,45.38
2023-05-18T18:20:47.906Z,45.90
2023-05-18T18:23:15.551Z,40.88
2023-05-18T18:25:43.365Z,38.22
2023-05-18T18:28:14.517Z,33.60
2023-05-18T18:30:44.059Z,33.13
2023-05-18T18:33:11.351Z,34.45
2023-05-18T18:35:38.552Z,34.85
2023-05-18T18:38:05.438Z,35.58
2023-05-18T18:40:33.799Z,33.47
2023-05-18T18:43:00.775Z,35.20
2023-05-18T18:45:30.739Z,34.92
2023-05-18T18:47:58.070Z,34.22
2023-05-18T18:50:25.551Z,33.50
2023-05-18T18:52:52.292Z,34.03
2023-05-18T18:55:19.711Z,34.25
2023-05-18T18:57:46.609Z,33.20
2023-05-18T19:00:17.079Z,33.83
2023-05-18T19:02:43.839Z,34.13
2023-05-18T19:05:10.755Z,34.80
2023-05-18T19:07:37.662Z,26.05
2023-05-18T19:10:05.024Z,25.45
2023-05-18T19:12:32.637Z,25.75
2023-05-18T19:14:59.449Z,25.88
2023-05-18T19:17:26.493Z,35.08
2023-05-18T19:19:53.358Z,25.60
2023-05-18T19:22:20.059Z,26.30
2023-05-18T19:24:46.760Z,26.55
2023-05-18T19:27:13.464Z,27.00
2023-05-18T19:29:40.298Z,26.77
2023-05-18T19:32:07.360Z,26.00
2023-05-18T19:34:34.129Z,26.35
2023-05-18T19:37:00.826Z,25.52
2023-05-18T19:39:27.646Z,26.92
2023-05-18T19:41:54.517Z,27.23
2023-05-18T19:44:21.645Z,26.52
2023-05-18T19:46:48.756Z,25.90
2023-05-18T19:49:15.602Z,32.67
2023-05-18T19:51:42.277Z,25.80
2023-05-18T19:54:08.975Z,26.38
2023-05-18T19:56:38.463Z,25.10
2023-05-18T19:59:05.148Z,26.27
2023-05-18T20:01:32.188Z,25.60
2023-05-18T20:03:59.819Z,25.25
2023-05-18T20:06:29.166Z,25.33
2023-05-18T20:08:56.112Z,24.58
2023-05-18T20:11:22.853Z,25.45
2023-05-18T20:13:49.632Z,23.80
2023-05-18T20:16:16.427Z,24.73
2023-05-18T20:18:45.652Z,24.77
2023-05-18T20:21:12.370Z,25.10
2023-05-18T20:23:39.239Z,23.77
2023-05-18T20:26:07.011Z,23.52
2023-05-18T20:28:33.793Z,22.92
2023-05-18T20:31:00.604Z,24.25
2023-05-18T20:33:29.985Z,24.42
2023-05-18T20:35:56.663Z,23.73
2023-05-18T20:38:25.710Z,24.17
2023-05-18T20:40:53.568Z,24.25
2023-05-18T20:43:21.152Z,23.67
2023-05-18T20:45:49.572Z,23.88
2023-05-18T20:48:24.311Z,24.63
2023-05-18T20:50:51.891Z,23.55
2023-05-18T20:53:19.501Z,24.30
2023-05-18T20:55:47.440Z,24.13
2023-05-18T20:58:14.924Z,24.02
2023-05-18T21:00:42.111Z,23.52
2023-05-18T21:03:09.159Z,23.80
2023-05-18T21:05:36.247Z,24.08
2023-05-18T21:08:03.410Z,23.85
2023-05-18T21:10:31.790Z,24.20
2023-05-18T21:12:58.825Z,23.88
2023-05-18T21:15:25.724Z,23.52
2023-05-18T21:17:52.511Z,24.17
2023-05-18T21:20:19.231Z,23.85
2023-05-18T21:22:46.450Z,23.80
2023-05-18T21:25:13.224Z,23.23
2023-05-18T21:27:39.942Z,25.30
2023-05-18T21:30:07.303Z,24.98
2023-05-18T21:32:34.186Z,23.95
2023-05-18T21:35:01.411Z,27.95
2023-05-18T21:37:29.284Z,24.33
2023-05-18T21:39:55.956Z,24.55
2023-05-18T21:42:22.646Z,23.75
2023-05-18T21:44:49.303Z,24.40
2023-05-18T21:47:15.974Z,34.85
2023-05-18T21:49:44.064Z,24.48
2023-05-18T21:52:10.774Z,24.50
2023-05-18T21:54:38.398Z,23.63
2023-05-18T21:57:05.728Z,25.02
2023-05-18T21:59:32.432Z,23.98
2023-05-18T22:01:59.193Z,24.42
2023-05-18T22:04:26.106Z,24.10
2023-05-18T22:06:53.508Z,24.15
2023-05-18T22:09:20.346Z,23.98
2023-05-18T22:11:46.992Z,23.98
2023-05-18T22:14:14.984Z,23.67
2023-05-18T22:16:43.778Z,24.48
2023-05-18T22:19:10.808Z,23.48
2023-05-18T22:21:37.594Z,23.95
2023-05-18T22:24:04.576Z,23.65
2023-05-18T22:26:31.530Z,23.17
2023-05-18T22:28:58.466Z,24.35
2023-05-18T22:31:25.502Z,24.13
2023-05-18T22:33:53.946Z,23.33
2023-05-18T22:36:21.690Z,25.25
2023-05-18T22:38:49.607Z,24.70
2023-05-18T22:41:17.088Z,24.27
2023-05-18T22:43:43.734Z,23.27
2023-05-18T22:46:11.157Z,24.35
2023-05-18T22:48:37.948Z,24.13
2023-05-18T22:51:06.222Z,23.70
2023-05-18T22:53:33.445Z,24.83
2023-05-18T22:56:00.299Z,23.80
2023-05-18T22:58:27.126Z,24.20
2023-05-18T23:00:53.868Z,24.35
2023-05-18T23:03:20.657Z,24.60
2023-05-18T23:05:48.258Z,24.23
2023-05-18T23:08:15.618Z,24.80
2023-05-18T23:10:44.573Z,24.35
2023-05-18T23:13:12.326Z,23.48
2023-05-18T23:15:41.283Z,24.98
2023-05-18T23:18:09.014Z,26.17
2023-05-18T23:20:36.002Z,24.83
2023-05-18T23:23:02.700Z,24.83
2023-05-18T23:25:29.473Z,24.50
2023-05-18T23:27:56.188Z,28.27
2023-05-18T23:30:22.832Z,24.60
2023-05-18T23:32:50.065Z,24.40
2023-05-18T23:35:18.334Z,24.42
2023-05-18T23:37:48.928Z,23.90
2023-05-18T23:40:18.900Z,24.10
2023-05-18T23:42:46.241Z,23.75
2023-05-18T23:45:13.652Z,23.55
2023-05-18T23:47:40.802Z,24.23
2023-05-18T23:50:08.085Z,24.20
2023-05-18T23:52:36.088Z,25.92
2023-05-18T23:55:03.987Z,25.63
2023-05-18T23:57:31.480Z,24.48
2023-05-18T23:59:58.579Z,24.65
